createdAt,value
2022-11-07T00:00:37.000Z,8.03
2022-11-07T00:01:37.000Z,7.99
2022-11-07T00:02:37.000Z,8.00
2022-11-07T00:03:36.000Z,8.11
2022-11-07T00:04:37.000Z,8.06
2022-11-07T00:05:39.000Z,8.09
2022-11-07T00:06:37.000Z,8.13
2022-11-07T00:07:37.000Z,8.13
2022-11-07T00:08:37.000Z,8.12
2022-11-07T00:09:37.000Z,8.15
2022-11-07T00:10:37.000Z,8.10
2022-11-07T00:11:37.000Z,8.11
2022-11-07T00:12:38.000Z,8.15
2022-11-07T00:13:37.000Z,8.12
2022-11-07T00:14:37.000Z,8.08
2022-11-07T00:15:37.000Z,8.13
2022-11-07T00:16:37.000Z,8.08
2022-11-07T00:17:37.000Z,8.06
2022-11-07T00:18:37.000Z,8.00
2022-11-07T00:19:37.000Z,7.99
2022-11-07T00:20:37.000Z,7.93
2022-11-07T00:21:39.000Z,7.92
2022-11-07T00:22:37.000Z,7.92
2022-11-07T00:23:41.000Z,7.88
2022-11-07T00:24:37.000Z,7.91
2022-11-07T00:25:37.000Z,7.87
2022-11-07T00:26:37.000Z,7.85
2022-11-07T00:27:37.000Z,7.86
2022-11-07T00:28:39.000Z,7.85
2022-11-07T00:29:37.000Z,7.83
2022-11-07T00:30:37.000Z,7.87
2022-11-07T00:31:37.000Z,7.84
2022-11-07T00:32:37.000Z,7.84
2022-11-07T00:33:37.000Z,7.82
2022-11-07T00:34:37.000Z,7.84
2022-11-07T00:35:40.000Z,7.85
2022-11-07T00:36:36.000Z,7.86
2022-11-07T00:37:36.000Z,7.80
2022-11-07T00:38:36.000Z,7.83
2022-11-07T00:39:36.000Z,7.82
2022-11-07T00:40:36.000Z,7.87
2022-11-07T00:41:36.000Z,7.86
2022-11-07T00:42:36.000Z,7.85
2022-11-07T00:43:36.000Z,7.87
2022-11-07T00:44:36.000Z,7.91
2022-11-07T00:45:36.000Z,7.90
2022-11-07T00:46:36.000Z,7.92
2022-11-07T00:47:36.000Z,7.90
2022-11-07T00:48:36.000Z,7.89
2022-11-07T00:49:36.000Z,7.95
2022-11-07T00:50:36.000Z,7.91
2022-11-07T00:51:36.000Z,7.91
2022-11-07T00:52:36.000Z,7.92
2022-11-07T00:53:37.000Z,7.95
2022-11-07T00:54:36.000Z,7.90
2022-11-07T00:55:36.000Z,7.93
2022-11-07T00:56:36.000Z,7.95
2022-11-07T00:57:36.000Z,7.92
2022-11-07T00:58:37.000Z,7.94
2022-11-07T00:59:36.000Z,7.95
2022-11-07T01:00:36.000Z,7.96
2022-11-07T01:01:37.000Z,7.96
2022-11-07T01:02:36.000Z,7.92
2022-11-07T01:03:42.000Z,7.94
2022-11-07T01:04:41.000Z,7.98
2022-11-07T01:05:36.000Z,7.94
2022-11-07T01:06:39.000Z,8.00
2022-11-07T01:07:38.000Z,7.95
2022-11-07T01:08:37.000Z,7.93
2022-11-07T01:09:37.000Z,7.93
2022-11-07T01:10:40.000Z,7.94
2022-11-07T01:11:38.000Z,7.92
2022-11-07T01:12:37.000Z,7.93
2022-11-07T01:13:37.000Z,7.90
2022-11-07T01:14:37.000Z,8.01
2022-11-07T01:15:39.000Z,7.93
2022-11-07T01:16:38.000Z,7.94
2022-11-07T01:17:37.000Z,7.90
2022-11-07T01:18:37.000Z,7.93
2022-11-07T01:19:37.000Z,7.94
2022-11-07T01:20:37.000Z,7.94
2022-11-07T01:21:39.000Z,7.92
2022-11-07T01:22:37.000Z,7.95
2022-11-07T01:23:37.000Z,7.95
2022-11-07T01:24:37.000Z,7.93
2022-11-07T01:25:38.000Z,7.92
2022-11-07T01:26:38.000Z,7.94
2022-11-07T01:27:37.000Z,7.92
2022-11-07T01:28:38.000Z,7.95
2022-11-07T01:29:37.000Z,7.94
2022-11-07T01:30:39.000Z,7.96
2022-11-07T01:31:37.000Z,7.96
2022-11-07T01:32:37.000Z,7.97
2022-11-07T01:33:37.000Z,7.97
2022-11-07T01:34:37.000Z,7.94
2022-11-07T01:35:37.000Z,7.94
2022-11-07T01:36:37.000Z,7.95
2022-11-07T01:37:37.000Z,7.97
2022-11-07T01:38:40.000Z,7.98
2022-11-07T01:39:37.000Z,7.95
2022-11-07T01:40:51.000Z,7.95
2022-11-07T01:41:37.000Z,7.94
2022-11-07T01:42:36.000Z,7.93
2022-11-07T01:43:47.000Z,7.94
2022-11-07T01:44:50.000Z,7.98
2022-11-07T01:45:36.000Z,7.93
2022-11-07T01:46:39.000Z,7.97
2022-11-07T01:47:37.000Z,7.93
2022-11-07T01:48:39.000Z,7.95
2022-11-07T01:49:40.000Z,7.96
2022-11-07T01:50:37.000Z,7.93
2022-11-07T01:51:45.000Z,7.96
2022-11-07T01:52:39.000Z,7.96
2022-11-07T01:53:37.000Z,7.94
2022-11-07T01:54:49.000Z,7.95
2022-11-07T01:55:37.000Z,7.97
2022-11-07T01:56:40.000Z,7.97
2022-11-07T01:57:42.000Z,7.95
2022-11-07T01:58:37.000Z,7.98
2022-11-07T01:59:38.000Z,7.92
2022-11-07T02:00:37.000Z,7.98
2022-11-07T02:01:37.000Z,7.95
2022-11-07T02:02:38.000Z,7.96
2022-11-07T02:03:37.000Z,7.99
2022-11-07T02:04:37.000Z,7.95
2022-11-07T02:05:42.000Z,8.00
2022-11-07T02:06:44.000Z,7.99
2022-11-07T02:07:37.000Z,7.98
2022-11-07T02:08:38.000Z,8.00
2022-11-07T02:09:37.000Z,7.98
2022-11-07T02:10:38.000Z,8.01
2022-11-07T02:11:36.000Z,8.02
2022-11-07T02:12:37.000Z,8.00
2022-11-07T02:13:36.000Z,7.98
2022-11-07T02:14:36.000Z,8.01
2022-11-07T02:15:37.000Z,7.97
2022-11-07T02:16:36.000Z,8.02
2022-11-07T02:17:37.000Z,8.01
2022-11-07T02:18:40.000Z,8.02
2022-11-07T02:19:43.000Z,8.05
2022-11-07T02:20:37.000Z,8.10
2022-11-07T02:21:50.000Z,8.08
2022-11-07T02:22:56.000Z,8.09
2022-11-07T02:23:47.000Z,8.09
2022-11-07T02:24:38.000Z,8.07
2022-11-07T02:25:37.000Z,8.12
2022-11-07T02:26:38.000Z,8.06
2022-11-07T02:27:39.000Z,8.09
2022-11-07T02:28:39.000Z,8.10
2022-11-07T02:29:40.000Z,8.10
2022-11-07T02:30:37.000Z,8.12
2022-11-07T02:31:37.000Z,8.10
2022-11-07T02:32:37.000Z,8.12
2022-11-07T02:33:36.000Z,8.11
2022-11-07T02:34:37.000Z,8.15
2022-11-07T02:35:40.000Z,8.12
2022-11-07T02:36:37.000Z,8.15
2022-11-07T02:37:38.000Z,8.16
2022-11-07T02:38:36.000Z,8.16
2022-11-07T02:39:36.000Z,8.13
2022-11-07T02:40:37.000Z,8.17
2022-11-07T02:41:36.000Z,8.15
2022-11-07T02:42:41.000Z,8.26
2022-11-07T02:43:40.000Z,8.17
2022-11-07T02:44:36.000Z,8.20
2022-11-07T02:45:40.000Z,8.26
2022-11-07T02:46:38.000Z,8.26
2022-11-07T02:47:36.000Z,8.27
2022-11-07T02:48:43.000Z,8.26
2022-11-07T02:49:36.000Z,8.30
2022-11-07T02:50:40.000Z,8.27
2022-11-07T02:51:36.000Z,8.30
2022-11-07T02:52:36.000Z,8.30
2022-11-07T02:53:37.000Z,8.31
2022-11-07T02:54:36.000Z,8.27
2022-11-07T02:55:37.000Z,8.26
2022-11-07T02:56:36.000Z,8.34
2022-11-07T02:57:36.000Z,8.29
2022-11-07T02:58:37.000Z,8.24
2022-11-07T02:59:36.000Z,8.23
2022-11-07T03:00:36.000Z,8.20
2022-11-07T03:01:36.000Z,8.26
2022-11-07T03:02:36.000Z,8.29
2022-11-07T03:03:43.000Z,8.31
2022-11-07T03:04:36.000Z,8.26
2022-11-07T03:05:36.000Z,8.26
2022-11-07T03:06:36.000Z,8.27
2022-11-07T03:07:36.000Z,8.29
2022-11-07T03:08:36.000Z,8.27
2022-11-07T03:09:36.000Z,8.27
2022-11-07T03:10:36.000Z,8.30
2022-11-07T03:11:36.000Z,8.27
2022-11-07T03:12:36.000Z,8.29
2022-11-07T03:13:37.000Z,8.35
2022-11-07T03:14:36.000Z,8.32
2022-11-07T03:15:37.000Z,8.33
2022-11-07T03:16:37.000Z,8.33
2022-11-07T03:17:36.000Z,8.34
2022-11-07T03:18:36.000Z,8.30
2022-11-07T03:19:36.000Z,8.35
2022-11-07T03:20:36.000Z,8.37
2022-11-07T03:21:36.000Z,8.34
2022-11-07T03:22:37.000Z,8.32
2022-11-07T03:23:36.000Z,8.38
2022-11-07T03:24:36.000Z,8.37
2022-11-07T03:25:37.000Z,8.41
2022-11-07T03:26:36.000Z,8.40
2022-11-07T03:27:45.000Z,8.41
2022-11-07T03:28:36.000Z,8.45
2022-11-07T03:29:36.000Z,8.40
2022-11-07T03:30:36.000Z,8.43
2022-11-07T03:31:36.000Z,8.41
2022-11-07T03:32:36.000Z,8.38
2022-11-07T03:33:36.000Z,8.42
2022-11-07T03:34:36.000Z,8.39
2022-11-07T03:35:36.000Z,8.44
2022-11-07T03:36:36.000Z,8.49
2022-11-07T03:37:37.000Z,8.47
2022-11-07T03:38:36.000Z,8.45
2022-11-07T03:39:36.000Z,8.47
2022-11-07T03:40:38.000Z,8.50
2022-11-07T03:41:37.000Z,8.47
2022-11-07T03:42:38.000Z,8.53
2022-11-07T03:43:37.000Z,8.48
2022-11-07T03:44:36.000Z,8.48
2022-11-07T03:45:37.000Z,8.55
2022-11-07T03:46:37.000Z,8.46
2022-11-07T03:47:39.000Z,8.52
2022-11-07T03:48:37.000Z,8.54
2022-11-07T03:49:37.000Z,8.60
2022-11-07T03:50:37.000Z,8.54
2022-11-07T03:51:37.000Z,8.54
2022-11-07T03:52:37.000Z,8.54
2022-11-07T03:53:37.000Z,8.52
2022-11-07T03:54:37.000Z,8.58
2022-11-07T03:55:38.000Z,8.57
2022-11-07T03:56:37.000Z,8.61
2022-11-07T03:57:37.000Z,8.54
2022-11-07T03:58:37.000Z,8.56
2022-11-07T03:59:37.000Z,8.54
2022-11-07T04:00:37.000Z,8.56
2022-11-07T04:01:37.000Z,8.58
2022-11-07T04:02:37.000Z,8.60
2022-11-07T04:03:37.000Z,8.56
2022-11-07T04:04:37.000Z,8.57
2022-11-07T04:05:37.000Z,8.56
2022-11-07T04:06:37.000Z,8.58
2022-11-07T04:07:37.000Z,8.58
2022-11-07T04:08:37.000Z,8.57
2022-11-07T04:09:37.000Z,8.59
2022-11-07T04:10:36.000Z,8.62
2022-11-07T04:11:42.000Z,8.65
2022-11-07T04:12:42.000Z,8.65
2022-11-07T04:13:42.000Z,8.63
2022-11-07T04:14:42.000Z,8.63
2022-11-07T04:15:43.000Z,8.61
2022-11-07T04:16:42.000Z,8.64
2022-11-07T04:17:37.000Z,8.65
2022-11-07T04:18:37.000Z,8.67
2022-11-07T04:19:37.000Z,8.66
2022-11-07T04:20:37.000Z,8.78
2022-11-07T04:21:37.000Z,8.74
2022-11-07T04:22:37.000Z,8.74
2022-11-07T04:23:37.000Z,8.76
2022-11-07T04:24:37.000Z,8.85
2022-11-07T04:25:42.000Z,8.85
2022-11-07T04:26:42.000Z,8.89
2022-11-07T04:27:42.000Z,8.83
2022-11-07T04:28:37.000Z,8.86
2022-11-07T04:29:37.000Z,8.81
2022-11-07T04:30:37.000Z,8.80
2022-11-07T04:31:37.000Z,8.81
2022-11-07T04:32:36.000Z,8.89
2022-11-07T04:33:37.000Z,8.82
2022-11-07T04:34:37.000Z,8.85
2022-11-07T04:35:37.000Z,8.85
2022-11-07T04:36:37.000Z,8.90
2022-11-07T04:37:37.000Z,8.86
2022-11-07T04:38:37.000Z,8.81
2022-11-07T04:39:37.000Z,8.83
2022-11-07T04:40:37.000Z,8.92
2022-11-07T04:41:37.000Z,8.85
2022-11-07T04:42:38.000Z,8.83
2022-11-07T04:43:36.000Z,8.84
2022-11-07T04:44:36.000Z,8.87
2022-11-07T04:45:37.000Z,8.88
2022-11-07T04:46:36.000Z,8.88
2022-11-07T04:47:37.000Z,8.86
2022-11-07T04:48:36.000Z,8.94
2022-11-07T04:49:37.000Z,8.89
2022-11-07T04:50:37.000Z,8.90
2022-11-07T04:51:40.000Z,8.91
2022-11-07T04:52:37.000Z,8.91
2022-11-07T04:53:37.000Z,8.95
2022-11-07T04:54:37.000Z,8.89
2022-11-07T04:55:37.000Z,8.96
2022-11-07T04:56:36.000Z,8.92
2022-11-07T04:57:37.000Z,8.96
2022-11-07T04:58:37.000Z,8.98
2022-11-07T04:59:37.000Z,8.93
2022-11-07T05:00:37.000Z,8.94
2022-11-07T05:01:37.000Z,8.93
2022-11-07T05:02:37.000Z,8.91
2022-11-07T05:03:37.000Z,8.95
2022-11-07T05:04:37.000Z,8.95
2022-11-07T05:05:37.000Z,8.95
2022-11-07T05:06:37.000Z,8.95
2022-11-07T05:07:37.000Z,8.95
2022-11-07T05:08:37.000Z,8.92
2022-11-07T05:09:37.000Z,8.97
2022-11-07T05:10:37.000Z,8.97
2022-11-07T05:11:36.000Z,8.99
2022-11-07T05:12:36.000Z,8.96
2022-11-07T05:13:36.000Z,8.99
2022-11-07T05:14:36.000Z,8.97
2022-11-07T05:15:37.000Z,8.95
2022-11-07T05:16:37.000Z,8.98
2022-11-07T05:17:36.000Z,8.98
2022-11-07T05:18:36.000Z,9.00
2022-11-07T05:19:36.000Z,8.97
2022-11-07T05:20:38.000Z,8.99
2022-11-07T05:21:36.000Z,8.96
2022-11-07T05:22:42.000Z,9.00
2022-11-07T05:23:37.000Z,8.94
2022-11-07T05:24:38.000Z,8.97
2022-11-07T05:25:41.000Z,8.97
2022-11-07T05:26:37.000Z,8.93
2022-11-07T05:27:37.000Z,8.94
2022-11-07T05:28:37.000Z,8.95
2022-11-07T05:29:37.000Z,8.98
2022-11-07T05:30:41.000Z,8.99
2022-11-07T05:31:37.000Z,9.00
2022-11-07T05:32:37.000Z,8.99
2022-11-07T05:33:36.000Z,8.98
2022-11-07T05:34:37.000Z,8.95
2022-11-07T05:35:37.000Z,8.98
2022-11-07T05:36:37.000Z,9.01
2022-11-07T05:37:36.000Z,8.96
2022-11-07T05:38:39.000Z,8.94
2022-11-07T05:39:37.000Z,8.97
2022-11-07T05:40:38.000Z,8.95
2022-11-07T05:41:36.000Z,8.96
2022-11-07T05:42:36.000Z,8.96
2022-11-07T05:43:37.000Z,8.94
2022-11-07T05:44:36.000Z,8.96
2022-11-07T05:45:36.000Z,8.94
2022-11-07T05:46:36.000Z,8.94
2022-11-07T05:47:36.000Z,8.94
2022-11-07T05:48:36.000Z,8.93
2022-11-07T05:49:36.000Z,8.94
2022-11-07T05:50:37.000Z,8.98
2022-11-07T05:51:36.000Z,8.94
2022-11-07T05:52:36.000Z,8.96
2022-11-07T05:53:36.000Z,8.93
2022-11-07T05:54:36.000Z,8.92
2022-11-07T05:55:36.000Z,8.90
2022-11-07T05:56:36.000Z,8.93
2022-11-07T05:57:36.000Z,8.95
2022-11-07T05:58:36.000Z,8.95
2022-11-07T05:59:36.000Z,8.96
2022-11-07T06:00:37.000Z,8.95
2022-11-07T06:01:36.000Z,8.95
2022-11-07T06:02:36.000Z,8.94
2022-11-07T06:03:36.000Z,8.95
2022-11-07T06:04:36.000Z,8.93
2022-11-07T06:05:37.000Z,8.99
2022-11-07T06:06:36.000Z,8.94
2022-11-07T06:07:37.000Z,8.94
2022-11-07T06:08:36.000Z,8.96
2022-11-07T06:09:36.000Z,8.98
2022-11-07T06:10:37.000Z,8.98
2022-11-07T06:11:36.000Z,8.95
2022-11-07T06:12:36.000Z,8.92
2022-11-07T06:13:36.000Z,8.93
2022-11-07T06:14:36.000Z,8.97
2022-11-07T06:15:37.000Z,8.94
2022-11-07T06:16:36.000Z,8.95
2022-11-07T06:17:36.000Z,8.97
2022-11-07T06:18:36.000Z,8.95
2022-11-07T06:19:36.000Z,8.94
2022-11-07T06:20:36.000Z,8.93
2022-11-07T06:21:36.000Z,8.95
2022-11-07T06:22:36.000Z,8.93
2022-11-07T06:23:36.000Z,8.96
2022-11-07T06:24:36.000Z,8.94
2022-11-07T06:25:36.000Z,8.94
2022-11-07T06:26:36.000Z,8.98
2022-11-07T06:27:36.000Z,8.98
2022-11-07T06:28:36.000Z,8.95
2022-11-07T06:29:36.000Z,8.98
2022-11-07T06:30:37.000Z,8.98
2022-11-07T06:31:36.000Z,8.96
2022-11-07T06:32:38.000Z,8.97
2022-11-07T06:33:36.000Z,9.00
2022-11-07T06:34:36.000Z,8.99
2022-11-07T06:35:37.000Z,8.92
2022-11-07T06:36:36.000Z,9.00
2022-11-07T06:37:37.000Z,8.97
2022-11-07T06:38:37.000Z,8.97
2022-11-07T06:39:36.000Z,8.98
2022-11-07T06:40:38.000Z,8.97
2022-11-07T06:41:36.000Z,9.00
2022-11-07T06:42:36.000Z,8.96
2022-11-07T06:43:36.000Z,8.96
2022-11-07T06:44:36.000Z,8.96
2022-11-07T06:45:36.000Z,8.97
2022-11-07T06:46:36.000Z,8.97
2022-11-07T06:47:36.000Z,8.96
2022-11-07T06:48:36.000Z,8.95
2022-11-07T06:49:36.000Z,8.95
2022-11-07T06:50:36.000Z,8.96
2022-11-07T06:51:36.000Z,9.01
2022-11-07T06:52:36.000Z,8.99
2022-11-07T06:53:36.000Z,8.98
2022-11-07T06:54:36.000Z,8.96
2022-11-07T06:55:37.000Z,8.96
2022-11-07T06:56:36.000Z,8.95
2022-11-07T06:57:36.000Z,8.94
2022-11-07T06:58:36.000Z,8.98
2022-11-07T06:59:36.000Z,8.95
2022-11-07T07:00:36.000Z,8.96
2022-11-07T07:01:36.000Z,8.95
2022-11-07T07:02:36.000Z,8.95
2022-11-07T07:03:36.000Z,8.97
2022-11-07T07:04:36.000Z,8.99
2022-11-07T07:05:37.000Z,8.97
2022-11-07T07:06:37.000Z,9.01
2022-11-07T07:07:36.000Z,8.99
2022-11-07T07:08:36.000Z,8.99
2022-11-07T07:09:36.000Z,8.99
2022-11-07T07:10:39.000Z,9.00
2022-11-07T07:11:36.000Z,8.97
2022-11-07T07:12:36.000Z,9.02
2022-11-07T07:13:37.000Z,9.01
2022-11-07T07:14:36.000Z,9.03
2022-11-07T07:15:36.000Z,9.00
2022-11-07T07:16:37.000Z,9.02
2022-11-07T07:17:36.000Z,9.01
2022-11-07T07:18:36.000Z,9.02
2022-11-07T07:19:36.000Z,9.02
2022-11-07T07:20:36.000Z,9.02
2022-11-07T07:21:37.000Z,9.06
2022-11-07T07:22:36.000Z,9.07
2022-11-07T07:23:38.000Z,9.07
2022-11-07T07:24:36.000Z,9.09
2022-11-07T07:25:36.000Z,9.08
2022-11-07T07:26:36.000Z,9.11
2022-11-07T07:27:36.000Z,9.10
2022-11-07T07:28:36.000Z,9.12
2022-11-07T07:29:36.000Z,9.11
2022-11-07T07:30:37.000Z,9.14
2022-11-07T07:31:36.000Z,9.12
2022-11-07T07:32:37.000Z,9.15
2022-11-07T07:33:36.000Z,9.11
2022-11-07T07:34:36.000Z,9.14
2022-11-07T07:35:36.000Z,9.16
2022-11-07T07:36:36.000Z,9.19
2022-11-07T07:37:36.000Z,9.19
2022-11-07T07:38:37.000Z,9.19
2022-11-07T07:39:36.000Z,9.18
2022-11-07T07:40:36.000Z,9.20
2022-11-07T07:41:36.000Z,9.18
2022-11-07T07:42:40.000Z,9.19
2022-11-07T07:43:37.000Z,9.19
2022-11-07T07:44:37.000Z,9.20
2022-11-07T07:45:36.000Z,9.21
2022-11-07T07:46:37.000Z,9.25
2022-11-07T07:47:37.000Z,9.23
2022-11-07T07:48:37.000Z,9.24
2022-11-07T07:49:37.000Z,9.21
2022-11-07T07:50:36.000Z,9.25
2022-11-07T07:51:36.000Z,9.21
2022-11-07T07:52:37.000Z,9.22
2022-11-07T07:53:36.000Z,9.23
2022-11-07T07:54:37.000Z,9.22
2022-11-07T07:55:37.000Z,9.23
2022-11-07T07:56:36.000Z,9.27
2022-11-07T07:57:42.000Z,9.25
2022-11-07T07:58:36.000Z,9.26
2022-11-07T07:59:37.000Z,9.27
2022-11-07T08:00:37.000Z,9.28
2022-11-07T08:01:37.000Z,9.26
2022-11-07T08:02:37.000Z,9.32
2022-11-07T08:03:37.000Z,9.28
2022-11-07T08:04:37.000Z,9.28
2022-11-07T08:05:38.000Z,9.33
2022-11-07T08:06:37.000Z,9.28
2022-11-07T08:07:47.000Z,9.34
2022-11-07T08:08:36.000Z,9.33
2022-11-07T08:09:37.000Z,9.33
2022-11-07T08:10:37.000Z,9.33
2022-11-07T08:11:37.000Z,9.36
2022-11-07T08:12:42.000Z,9.37
2022-11-07T08:13:37.000Z,9.36
2022-11-07T08:14:36.000Z,9.37
2022-11-07T08:15:37.000Z,9.36
2022-11-07T08:16:37.000Z,9.36
2022-11-07T08:17:37.000Z,9.37
2022-11-07T08:18:38.000Z,9.34
2022-11-07T08:19:36.000Z,9.32
2022-11-07T08:20:37.000Z,9.36
2022-11-07T08:21:36.000Z,9.41
2022-11-07T08:22:37.000Z,9.38
2022-11-07T08:23:37.000Z,9.35
2022-11-07T08:24:37.000Z,9.38
2022-11-07T08:25:37.000Z,9.41
2022-11-07T08:26:37.000Z,9.44
2022-11-07T08:27:37.000Z,9.41
2022-11-07T08:28:36.000Z,9.42
2022-11-07T08:29:36.000Z,9.42
2022-11-07T08:30:37.000Z,9.41
2022-11-07T08:31:37.000Z,9.43
2022-11-07T08:32:37.000Z,9.45
2022-11-07T08:33:37.000Z,9.42
2022-11-07T08:34:37.000Z,9.46
2022-11-07T08:35:37.000Z,9.47
2022-11-07T08:36:37.000Z,9.42
2022-11-07T08:37:37.000Z,9.46
2022-11-07T08:38:36.000Z,9.40
2022-11-07T08:39:36.000Z,9.44
2022-11-07T08:40:37.000Z,9.48
2022-11-07T08:41:37.000Z,9.50
2022-11-07T08:42:37.000Z,9.46
2022-11-07T08:43:36.000Z,9.48
2022-11-07T08:44:37.000Z,9.49
2022-11-07T08:45:37.000Z,9.51
2022-11-07T08:46:36.000Z,9.44
2022-11-07T08:47:37.000Z,9.49
2022-11-07T08:48:38.000Z,9.48
2022-11-07T08:49:36.000Z,9.49
2022-11-07T08:50:37.000Z,9.51
2022-11-07T08:51:37.000Z,9.52
2022-11-07T08:52:37.000Z,9.50
2022-11-07T08:53:36.000Z,9.51
2022-11-07T08:54:37.000Z,9.53
2022-11-07T08:55:37.000Z,9.53
2022-11-07T08:56:37.000Z,9.53
2022-11-07T08:57:36.000Z,9.51
2022-11-07T08:58:37.000Z,9.55
2022-11-07T08:59:36.000Z,9.59
2022-11-07T09:00:36.000Z,9.58
2022-11-07T09:01:37.000Z,9.58
2022-11-07T09:02:36.000Z,9.57
2022-11-07T09:03:51.000Z,9.63
2022-11-07T09:04:37.000Z,9.58
2022-11-07T09:05:37.000Z,9.50
2022-11-07T09:06:37.000Z,9.55
2022-11-07T09:07:37.000Z,9.62
2022-11-07T09:08:37.000Z,9.61
2022-11-07T09:09:36.000Z,9.64
2022-11-07T09:10:37.000Z,9.62
2022-11-07T09:11:37.000Z,9.65
2022-11-07T09:12:47.000Z,9.63
2022-11-07T09:13:36.000Z,9.70
2022-11-07T09:14:36.000Z,9.65
2022-11-07T09:15:36.000Z,9.68
2022-11-07T09:16:36.000Z,9.70
2022-11-07T09:17:36.000Z,9.69
2022-11-07T09:18:37.000Z,9.68
2022-11-07T09:19:36.000Z,9.73
2022-11-07T09:20:36.000Z,9.73
2022-11-07T09:21:36.000Z,9.72
2022-11-07T09:22:36.000Z,9.74
2022-11-07T09:23:36.000Z,9.73
2022-11-07T09:24:36.000Z,9.75
2022-11-07T09:25:36.000Z,9.74
2022-11-07T09:26:36.000Z,9.76
2022-11-07T09:27:37.000Z,9.78
2022-11-07T09:28:37.000Z,9.80
2022-11-07T09:29:36.000Z,9.77
2022-11-07T09:30:37.000Z,9.73
2022-11-07T09:31:36.000Z,9.80
2022-11-07T09:32:36.000Z,9.75
2022-11-07T09:33:36.000Z,9.77
2022-11-07T09:34:36.000Z,9.80
2022-11-07T09:35:36.000Z,9.80
2022-11-07T09:36:36.000Z,9.80
2022-11-07T09:37:37.000Z,9.80
2022-11-07T09:38:36.000Z,9.73
2022-11-07T09:39:36.000Z,9.77
2022-11-07T09:40:49.000Z,9.80
2022-11-07T09:41:47.000Z,9.80
2022-11-07T09:42:54.000Z,9.70
2022-11-07T09:43:50.000Z,9.75
2022-11-07T09:44:49.000Z,9.70
2022-11-07T09:46:02.000Z,9.75
2022-11-07T09:47:00.000Z,9.80
2022-11-07T09:47:48.000Z,9.78
2022-11-07T09:48:43.000Z,9.84
2022-11-07T09:49:41.000Z,9.84
2022-11-07T09:50:41.000Z,9.87
2022-11-07T09:51:40.000Z,9.88
2022-11-07T09:52:49.000Z,9.87
2022-11-07T09:53:43.000Z,9.87
2022-11-07T09:54:42.000Z,9.89
2022-11-07T09:55:41.000Z,9.92
2022-11-07T09:56:40.000Z,9.87
2022-11-07T09:57:37.000Z,9.83
2022-11-07T09:58:41.000Z,9.88
2022-11-07T09:59:53.000Z,9.92
2022-11-07T10:00:37.000Z,9.88
2022-11-07T10:01:36.000Z,9.82
2022-11-07T10:02:42.000Z,9.89
2022-11-07T10:03:37.000Z,9.91
2022-11-07T10:04:36.000Z,9.88
2022-11-07T10:05:46.000Z,9.85
2022-11-07T10:06:46.000Z,9.92
2022-11-07T10:08:00.000Z,9.88
2022-11-07T10:08:57.000Z,9.77
2022-11-07T10:09:52.000Z,9.67
2022-11-07T10:10:47.000Z,9.77
2022-11-07T10:11:47.000Z,9.72
2022-11-07T10:12:56.000Z,9.76
2022-11-07T10:13:47.000Z,9.74
2022-11-07T10:14:46.000Z,9.69
2022-11-07T10:15:46.000Z,9.61
2022-11-07T10:16:46.000Z,9.60
2022-11-07T10:17:46.000Z,9.55
2022-11-07T10:19:00.000Z,9.65
2022-11-07T10:19:46.000Z,9.69
2022-11-07T10:20:49.000Z,9.72
2022-11-07T10:21:50.000Z,9.76
2022-11-07T10:22:55.000Z,9.81
2022-11-07T10:23:56.000Z,9.72
2022-11-07T10:25:09.000Z,9.70
2022-11-07T10:25:46.000Z,9.72
2022-11-07T10:26:40.000Z,9.77
2022-11-07T10:27:37.000Z,9.84
2022-11-07T10:28:44.000Z,9.86
2022-11-07T10:29:44.000Z,9.84
2022-11-07T10:30:36.000Z,9.88
2022-11-07T10:31:45.000Z,9.81
2022-11-07T10:32:52.000Z,9.87
2022-11-07T10:33:48.000Z,9.83
2022-11-07T10:34:46.000Z,9.85
2022-11-07T10:35:41.000Z,9.72
2022-11-07T10:36:36.000Z,9.67
2022-11-07T10:37:37.000Z,9.73
2022-11-07T10:38:40.000Z,9.74
2022-11-07T10:39:36.000Z,9.76
2022-11-07T10:40:40.000Z,9.72
2022-11-07T10:41:37.000Z,9.75
2022-11-07T10:42:36.000Z,9.80
2022-11-07T10:43:38.000Z,9.78
2022-11-07T10:44:38.000Z,9.78
2022-11-07T10:45:37.000Z,9.75
2022-11-07T10:46:38.000Z,9.76
2022-11-07T10:47:37.000Z,9.83
2022-11-07T10:48:35.000Z,9.72
2022-11-07T10:49:37.000Z,9.77
2022-11-07T10:50:36.000Z,9.76
2022-11-07T10:51:38.000Z,9.79
2022-11-07T10:52:39.000Z,9.82
2022-11-07T10:53:42.000Z,9.89
2022-11-07T10:54:38.000Z,9.86
2022-11-07T10:55:42.000Z,9.95
2022-11-07T10:56:42.000Z,9.91
2022-11-07T10:57:36.000Z,9.97
2022-11-07T10:58:42.000Z,9.96
2022-11-07T10:59:39.000Z,10.00
2022-11-07T11:00:37.000Z,10.01
2022-11-07T11:01:36.000Z,10.07
2022-11-07T11:02:54.000Z,9.92
2022-11-07T11:03:43.000Z,9.99
2022-11-07T11:04:36.000Z,10.00
2022-11-07T11:05:41.000Z,10.04
2022-11-07T11:06:35.000Z,10.08
2022-11-07T11:07:38.000Z,10.07
2022-11-07T11:08:37.000Z,10.10
2022-11-07T11:09:35.000Z,10.10
2022-11-07T11:10:37.000Z,9.98
2022-11-07T11:11:37.000Z,9.98
2022-11-07T11:12:46.000Z,9.93
2022-11-07T11:13:36.000Z,9.96
2022-11-07T11:14:37.000Z,9.96
2022-11-07T11:15:43.000Z,9.95
2022-11-07T11:16:40.000Z,9.98
2022-11-07T11:17:37.000Z,9.94
2022-11-07T11:18:37.000Z,9.97
2022-11-07T11:19:47.000Z,10.00
2022-11-07T11:20:48.000Z,9.90
2022-11-07T11:21:42.000Z,10.03
2022-11-07T11:22:41.000Z,10.12
2022-11-07T11:23:42.000Z,10.09
2022-11-07T11:24:36.000Z,10.20
2022-11-07T11:25:46.000Z,10.22
2022-11-07T11:26:38.000Z,10.18
2022-11-07T11:27:37.000Z,10.24
2022-11-07T11:28:44.000Z,10.32
2022-11-07T11:29:57.000Z,10.38
2022-11-07T11:30:37.000Z,10.33
2022-11-07T11:31:44.000Z,10.30
2022-11-07T11:32:47.000Z,10.38
2022-11-07T11:33:46.000Z,10.36
2022-11-07T11:34:57.000Z,10.25
2022-11-07T11:36:00.000Z,10.39
2022-11-07T11:36:44.000Z,10.24
2022-11-07T11:37:42.000Z,10.17
2022-11-07T11:38:37.000Z,10.17
2022-11-07T11:39:45.000Z,10.24
2022-11-07T11:40:39.000Z,10.08
2022-11-07T11:41:46.000Z,10.26
2022-11-07T11:42:59.000Z,10.12
2022-11-07T11:43:46.000Z,10.32
2022-11-07T11:44:39.000Z,10.37
2022-11-07T11:45:54.000Z,10.25
2022-11-07T11:46:50.000Z,10.16
2022-11-07T11:47:41.000Z,10.23
2022-11-07T11:48:45.000Z,10.19
2022-11-07T11:49:58.000Z,10.09
2022-11-07T11:50:43.000Z,10.08
2022-11-07T11:51:48.000Z,10.07
2022-11-07T11:52:37.000Z,10.18
2022-11-07T11:53:36.000Z,10.10
2022-11-07T11:54:36.000Z,10.20
2022-11-07T11:55:52.000Z,10.22
2022-11-07T11:56:47.000Z,10.33
2022-11-07T11:57:46.000Z,10.29
2022-11-07T11:59:04.000Z,10.31
2022-11-07T11:59:46.000Z,10.37
2022-11-07T12:00:51.000Z,10.32
2022-11-07T12:01:49.000Z,10.18
2022-11-07T12:02:46.000Z,10.07
2022-11-07T12:03:46.000Z,10.03
2022-11-07T12:04:49.000Z,10.13
2022-11-07T12:05:50.000Z,10.29
2022-11-07T12:06:45.000Z,10.35
2022-11-07T12:07:50.000Z,10.37
2022-11-07T12:09:10.000Z,10.31
2022-11-07T12:09:46.000Z,10.46
2022-11-07T12:10:49.000Z,10.39
2022-11-07T12:11:50.000Z,10.47
2022-11-07T12:12:56.000Z,10.25
2022-11-07T12:14:12.000Z,10.30
2022-11-07T12:14:50.000Z,10.33
2022-11-07T12:15:57.000Z,10.29
2022-11-07T12:16:47.000Z,10.43
2022-11-07T12:17:46.000Z,10.44
2022-11-07T12:18:46.000Z,10.52
2022-11-07T12:19:49.000Z,10.50
2022-11-07T12:20:49.000Z,10.27
2022-11-07T12:21:57.000Z,10.34
2022-11-07T12:22:47.000Z,10.21
2022-11-07T12:23:55.000Z,10.30
2022-11-07T12:25:00.000Z,10.32
2022-11-07T12:25:45.000Z,10.16
2022-11-07T12:26:46.000Z,10.13
2022-11-07T12:27:52.000Z,10.14
2022-11-07T12:28:46.000Z,10.18
2022-11-07T12:30:05.000Z,10.24
2022-11-07T12:30:46.000Z,10.14
2022-11-07T12:31:46.000Z,10.12
2022-11-07T12:32:59.000Z,10.12
2022-11-07T12:33:49.000Z,10.23
2022-11-07T12:34:56.000Z,10.24
2022-11-07T12:36:00.000Z,10.31
2022-11-07T12:36:52.000Z,10.38
2022-11-07T12:38:06.000Z,10.35
2022-11-07T12:38:47.000Z,10.33
2022-11-07T12:39:57.000Z,10.44
2022-11-07T12:40:48.000Z,10.45
2022-11-07T12:41:50.000Z,10.44
2022-11-07T12:42:46.000Z,10.38
2022-11-07T12:43:55.000Z,10.23
2022-11-07T12:44:53.000Z,10.35
2022-11-07T12:45:47.000Z,10.36
2022-11-07T12:46:47.000Z,10.17
2022-11-07T12:48:09.000Z,10.28
2022-11-07T12:48:46.000Z,10.33
2022-11-07T12:50:06.000Z,10.50
2022-11-07T12:50:58.000Z,10.46
2022-11-07T12:51:56.000Z,10.47
2022-11-07T12:53:00.000Z,10.35
2022-11-07T12:53:46.000Z,10.26
2022-11-07T12:54:46.000Z,10.21
2022-11-07T12:55:46.000Z,10.24
2022-11-07T12:56:37.000Z,10.13
2022-11-07T12:57:38.000Z,10.31
2022-11-07T12:58:39.000Z,10.29
2022-11-07T12:59:41.000Z,10.39
2022-11-07T13:00:36.000Z,10.25
2022-11-07T13:01:45.000Z,10.34
2022-11-07T13:02:56.000Z,10.40
2022-11-07T13:03:59.000Z,10.42
2022-11-07T13:04:50.000Z,10.43
2022-11-07T13:05:58.000Z,10.42
2022-11-07T13:06:47.000Z,10.49
2022-11-07T13:07:49.000Z,10.41
2022-11-07T13:08:46.000Z,10.46
2022-11-07T13:09:48.000Z,10.51
2022-11-07T13:10:46.000Z,10.60
2022-11-07T13:11:56.000Z,10.54
2022-11-07T13:12:42.000Z,10.47
2022-11-07T13:13:46.000Z,10.30
2022-11-07T13:14:39.000Z,10.23